createdAt,value
2017-12-14T00:01:08.369Z,3.00
2017-12-14T00:03:36.663Z,2.30
2017-12-14T00:06:04.975Z,2.50
2017-12-14T00:08:33.283Z,2.30
2017-12-14T00:11:01.745Z,2.70
2017-12-14T00:13:30.083Z,2.10
2017-12-14T00:15:58.407Z,2.27
2017-12-14T00:18:27.490Z,2.40
2017-12-14T00:20:56.662Z,2.17
2017-12-14T00:23:25.008Z,2.53
2017-12-14T00:25:53.317Z,2.63
2017-12-14T00:28:22.513Z,2.87
2017-12-14T00:30:50.815Z,2.40
2017-12-14T00:33:19.124Z,2.13
2017-12-14T00:35:48.179Z,2.33
2017-12-14T00:38:16.497Z,1.77
2017-12-14T00:40:45.555Z,2.73
2017-12-14T00:43:13.868Z,2.97
2017-12-14T00:45:42.181Z,2.70
2017-12-14T00:48:10.475Z,2.10
2017-12-14T00:50:38.779Z,2.33
2017-12-14T00:53:07.077Z,1.97
2017-12-14T00:55:35.377Z,2.10
2017-12-14T00:58:03.675Z,2.57
2017-12-14T01:00:32.766Z,3.00
2017-12-14T01:03:01.084Z,2.50
2017-12-14T01:05:29.375Z,2.13
2017-12-14T01:07:57.668Z,2.30
2017-12-14T01:10:25.953Z,2.20
2017-12-14T01:12:54.324Z,2.53
2017-12-14T01:15:22.631Z,2.10
2017-12-14T01:17:50.915Z,2.13
2017-12-14T01:20:19.270Z,2.07
2017-12-14T01:22:47.601Z,2.53
2017-12-14T01:25:16.682Z,2.10
2017-12-14T01:27:45.009Z,2.97
2017-12-14T01:30:13.330Z,2.33
2017-12-14T01:32:41.636Z,2.17
2017-12-14T01:35:09.953Z,2.23
2017-12-14T01:37:38.247Z,2.70
2017-12-14T01:40:06.554Z,2.73
2017-12-14T01:42:34.848Z,2.33
2017-12-14T01:45:03.138Z,2.13
2017-12-14T01:47:31.446Z,1.87
2017-12-14T01:52:35.008Z,1.73
2017-12-14T01:55:03.304Z,2.37
2017-12-14T01:57:31.635Z,2.83
2017-12-14T02:00:00.712Z,2.03
2017-12-14T02:02:29.024Z,2.07
2017-12-14T02:04:57.336Z,1.60
2017-12-14T02:07:25.634Z,1.70
2017-12-14T02:09:53.918Z,2.10
2017-12-14T02:12:22.236Z,1.87
2017-12-14T02:14:51.311Z,1.90
2017-12-14T02:17:19.662Z,2.50
2017-12-14T02:19:47.948Z,2.20
2017-12-14T02:22:16.242Z,2.30
2017-12-14T02:24:44.552Z,2.80
2017-12-14T02:27:13.612Z,2.23
2017-12-14T02:29:42.152Z,2.20
2017-12-14T02:32:11.214Z,1.60
2017-12-14T02:34:39.525Z,2.40
2017-12-14T02:37:08.702Z,2.10
2017-12-14T02:39:37.006Z,1.83
2017-12-14T02:42:06.104Z,1.40
2017-12-14T02:44:34.528Z,1.83
2017-12-14T02:47:02.827Z,1.50
2017-12-14T02:49:31.168Z,1.40
2017-12-14T02:51:59.453Z,1.70
2017-12-14T02:54:28.478Z,1.77
2017-12-14T02:56:56.781Z,1.70
2017-12-14T02:59:25.071Z,1.40
2017-12-14T03:01:53.372Z,1.50
2017-12-14T03:04:22.428Z,2.20
2017-12-14T03:06:50.758Z,1.50
2017-12-14T03:09:19.830Z,1.00
2017-12-14T03:11:48.927Z,1.00
2017-12-14T03:14:17.326Z,1.00
2017-12-14T03:16:46.388Z,0.70
2017-12-14T03:19:14.698Z,0.80
2017-12-14T03:21:42.983Z,0.50
2017-12-14T03:24:11.280Z,0.50
2017-12-14T03:26:40.346Z,0.63
2017-12-14T03:29:08.670Z,0.90
2017-12-14T03:31:37.042Z,0.80
2017-12-14T03:34:06.201Z,0.73
2017-12-14T03:36:34.514Z,0.80
2017-12-14T03:39:03.588Z,1.20
2017-12-14T03:41:31.900Z,1.10
2017-12-14T03:44:00.972Z,1.00
2017-12-14T03:46:29.278Z,1.20
2017-12-14T03:48:58.348Z,1.40
2017-12-14T03:51:26.903Z,1.10
2017-12-14T03:53:55.210Z,1.07
2017-12-14T03:56:23.519Z,1.47
2017-12-14T03:58:51.966Z,1.50
2017-12-14T04:01:20.269Z,1.30
2017-12-14T04:03:49.502Z,1.30
2017-12-14T04:06:18.677Z,1.50
2017-12-14T04:08:46.970Z,1.37
2017-12-14T04:11:15.284Z,1.50
2017-12-14T04:13:43.601Z,1.83
2017-12-14T04:16:11.900Z,1.70
2017-12-14T04:18:40.208Z,2.00
2017-12-14T04:21:09.270Z,1.90
2017-12-14T04:23:37.590Z,1.60
2017-12-14T04:26:06.666Z,1.90
2017-12-14T04:28:34.984Z,1.87
2017-12-14T04:31:03.282Z,2.03
2017-12-14T04:33:31.560Z,2.10
2017-12-14T04:35:59.859Z,1.83
2017-12-14T04:38:28.156Z,2.77
2017-12-14T04:40:56.508Z,2.07
2017-12-14T04:43:24.810Z,1.67
2017-12-14T04:45:53.232Z,2.10
2017-12-14T04:48:21.530Z,2.00
2017-12-14T04:50:50.649Z,1.80
2017-12-14T04:53:18.944Z,2.60
2017-12-14T04:55:47.250Z,2.10
2017-12-14T04:58:15.548Z,1.77
2017-12-14T05:00:43.877Z,1.90
2017-12-14T05:03:12.191Z,1.73
2017-12-14T05:05:40.494Z,1.70
2017-12-14T05:08:08.782Z,2.60
2017-12-14T05:10:37.088Z,1.80
2017-12-14T05:13:05.386Z,1.93
2017-12-14T05:15:33.680Z,1.53
2017-12-14T05:18:01.980Z,2.97
2017-12-14T05:20:30.292Z,2.27
2017-12-14T05:22:58.602Z,2.30
2017-12-14T05:25:26.900Z,2.33
2017-12-14T05:27:55.384Z,2.13
2017-12-14T05:30:23.698Z,2.60
2017-12-14T05:32:51.989Z,2.60
2017-12-14T05:35:20.293Z,2.77
2017-12-14T05:37:49.380Z,2.00
2017-12-14T05:40:17.686Z,1.90
2017-12-14T05:42:46.032Z,2.80
2017-12-14T05:45:14.342Z,3.13
2017-12-14T05:47:43.390Z,2.57
2017-12-14T05:50:11.676Z,2.37
2017-12-14T05:52:39.998Z,2.87
2017-12-14T05:55:09.045Z,3.10
2017-12-14T05:57:37.336Z,3.03
2017-12-14T06:00:05.626Z,3.80
2017-12-14T06:02:33.929Z,3.00
2017-12-14T06:05:02.224Z,2.93
2017-12-14T06:07:31.278Z,2.90
2017-12-14T06:09:59.744Z,3.20
2017-12-14T06:12:28.034Z,3.47
2017-12-14T06:14:56.365Z,2.37
2017-12-14T06:17:25.420Z,2.40
2017-12-14T06:19:53.726Z,2.77
2017-12-14T06:22:22.022Z,2.60
2017-12-14T06:24:50.312Z,2.53
2017-12-14T06:27:19.407Z,3.47
2017-12-14T06:29:48.472Z,2.80
2017-12-14T06:32:16.821Z,2.27
2017-12-14T06:34:45.121Z,2.13
2017-12-14T06:37:13.422Z,2.40
2017-12-14T06:39:41.736Z,2.93
2017-12-14T06:42:10.800Z,2.67
2017-12-14T06:44:39.094Z,2.30
2017-12-14T06:47:08.714Z,2.67
2017-12-14T06:49:37.790Z,2.60
2017-12-14T06:52:06.130Z,2.47
2017-12-14T06:54:34.440Z,2.53
2017-12-14T06:57:02.739Z,3.07
2017-12-14T06:59:31.052Z,2.30
2017-12-14T07:02:00.129Z,2.13
2017-12-14T07:04:28.423Z,2.00
2017-12-14T07:06:57.519Z,1.40
2017-12-14T07:09:26.616Z,1.80
2017-12-14T07:11:55.068Z,2.07
2017-12-14T07:14:23.367Z,1.53
2017-12-14T07:16:51.814Z,2.07
2017-12-14T07:19:20.117Z,2.23
2017-12-14T07:21:48.421Z,2.07
2017-12-14T07:24:16.727Z,1.40
2017-12-14T07:26:45.796Z,1.30
2017-12-14T07:29:14.095Z,1.70
2017-12-14T07:31:42.404Z,1.50
2017-12-14T07:34:11.444Z,1.67
2017-12-14T07:36:40.674Z,1.50
2017-12-14T07:39:09.032Z,1.17
2017-12-14T07:41:37.316Z,1.43
2017-12-14T07:44:23.470Z,1.30
2017-12-14T07:47:09.411Z,0.93
2017-12-14T07:49:37.734Z,1.40
2017-12-14T07:52:06.031Z,1.43
2017-12-14T07:54:34.329Z,1.40
2017-12-14T07:57:02.628Z,1.20
2017-12-14T07:59:30.987Z,2.10
2017-12-14T08:02:00.147Z,2.03
2017-12-14T08:04:29.218Z,3.50
2017-12-14T08:06:57.521Z,1.80
2017-12-14T08:09:26.593Z,1.97
2017-12-14T08:11:54.898Z,2.20
2017-12-14T08:14:23.967Z,2.10
2017-12-14T08:16:52.281Z,2.77
2017-12-14T08:19:21.335Z,2.50
2017-12-14T08:21:49.617Z,2.23
2017-12-14T08:24:17.931Z,2.80
2017-12-14T08:26:47.013Z,2.93
2017-12-14T08:29:15.308Z,2.30
2017-12-14T08:31:44.364Z,3.03
2017-12-14T08:34:12.679Z,2.70
2017-12-14T08:36:41.005Z,2.50
2017-12-14T08:39:09.295Z,2.73
2017-12-14T08:41:38.179Z,2.23
2017-12-14T08:44:06.560Z,2.40
2017-12-14T08:46:34.851Z,2.17
2017-12-14T08:49:03.137Z,2.77
2017-12-14T08:51:31.421Z,2.10
2017-12-14T08:53:59.727Z,2.40
2017-12-14T08:56:28.019Z,2.73
2017-12-14T08:58:56.735Z,2.63
2017-12-14T09:01:25.827Z,2.13
2017-12-14T09:03:54.929Z,2.10
2017-12-14T09:06:23.984Z,2.70
2017-12-14T09:08:53.047Z,2.97
2017-12-14T09:11:21.350Z,2.53
2017-12-14T09:13:49.655Z,2.90
2017-12-14T09:16:18.841Z,3.00
2017-12-14T09:18:47.152Z,3.07
2017-12-14T09:21:15.477Z,2.97
2017-12-14T09:23:43.774Z,2.33
2017-12-14T09:26:12.077Z,2.10
2017-12-14T09:28:40.360Z,2.07
2017-12-14T09:31:08.663Z,2.57
2017-12-14T09:33:37.743Z,1.80
2017-12-14T09:36:06.059Z,1.80
2017-12-14T09:38:35.120Z,2.30
2017-12-14T09:41:04.193Z,2.50
2017-12-14T09:43:32.494Z,2.60
2017-12-14T09:46:00.788Z,1.77
2017-12-14T09:48:29.089Z,1.93
2017-12-14T09:50:57.377Z,2.00
2017-12-14T09:53:27.378Z,2.33
2017-12-14T09:55:55.675Z,2.33
2017-12-14T09:58:24.091Z,2.93
2017-12-14T10:00:52.397Z,2.60
2017-12-14T10:03:20.689Z,1.80
2017-12-14T10:05:49.030Z,2.50
2017-12-14T10:08:17.370Z,3.23
2017-12-14T10:10:45.676Z,5.00
2017-12-14T10:13:14.767Z,3.10
2017-12-14T10:15:43.063Z,2.53
2017-12-14T10:18:11.376Z,2.43
2017-12-14T10:20:39.666Z,3.03
2017-12-14T10:23:07.964Z,3.00
2017-12-14T10:25:36.270Z,2.60
2017-12-14T10:28:04.549Z,2.03
2017-12-14T10:30:32.836Z,2.50
2017-12-14T10:33:01.144Z,2.33
2017-12-14T10:35:29.461Z,1.83
2017-12-14T10:37:57.740Z,2.80
2017-12-14T10:40:26.033Z,2.30
2017-12-14T10:42:54.352Z,2.30
2017-12-14T10:45:23.415Z,1.97
2017-12-14T10:47:51.711Z,2.10
2017-12-14T10:50:20.023Z,1.50
2017-12-14T10:52:49.092Z,1.60
2017-12-14T10:55:17.372Z,2.70
2017-12-14T10:57:45.691Z,2.23
2017-12-14T11:00:14.240Z,1.87
2017-12-14T11:02:42.543Z,1.33
2017-12-14T11:05:11.602Z,1.70
2017-12-14T11:07:39.943Z,1.23
2017-12-14T11:10:08.246Z,1.30
2017-12-14T11:12:36.541Z,1.77
2017-12-14T11:15:04.899Z,1.50
2017-12-14T11:17:33.191Z,2.23
2017-12-14T11:20:01.497Z,1.30
2017-12-14T11:22:29.814Z,1.50
2017-12-14T11:24:58.882Z,1.43
2017-12-14T11:27:27.174Z,1.90
2017-12-14T11:29:55.461Z,2.23
2017-12-14T11:32:23.769Z,1.77
2017-12-14T11:34:52.854Z,3.13
2017-12-14T11:37:21.910Z,2.07
2017-12-14T11:39:50.964Z,2.10
2017-12-14T11:42:19.280Z,2.50
2017-12-14T11:44:47.567Z,2.17
2017-12-14T11:47:15.888Z,2.70
2017-12-14T11:49:45.024Z,2.43
2017-12-14T11:52:13.337Z,2.90
2017-12-14T11:54:41.647Z,2.60
2017-12-14T11:57:09.964Z,1.80
2017-12-14T11:59:38.265Z,2.23
2017-12-14T12:02:06.580Z,2.70
2017-12-14T12:04:34.886Z,2.57
2017-12-14T12:07:03.949Z,2.60
2017-12-14T12:09:32.272Z,2.40
2017-12-14T12:12:01.415Z,2.30
2017-12-14T12:14:29.736Z,3.17
2017-12-14T12:16:58.832Z,3.00
2017-12-14T12:19:27.133Z,3.07
2017-12-14T12:21:56.188Z,2.80
2017-12-14T12:24:24.484Z,2.47
2017-12-14T12:26:52.778Z,3.20
2017-12-14T12:29:21.099Z,2.07
2017-12-14T12:31:49.391Z,2.27
2017-12-14T12:34:17.681Z,3.93
2017-12-14T12:36:45.994Z,3.07
2017-12-14T12:39:14.294Z,3.10
2017-12-14T12:41:43.356Z,2.40
2017-12-14T12:44:11.705Z,2.97
2017-12-14T12:46:39.985Z,2.83
2017-12-14T12:49:08.291Z,2.93
2017-12-14T12:51:36.595Z,2.67
2017-12-14T12:54:04.897Z,2.77
2017-12-14T12:56:33.967Z,4.17
2017-12-14T12:59:02.288Z,2.50
2017-12-14T13:01:31.386Z,3.27
2017-12-14T13:04:00.459Z,2.53
2017-12-14T13:06:28.761Z,2.87
2017-12-14T13:08:57.893Z,3.00
2017-12-14T13:11:26.205Z,2.80
2017-12-14T13:13:54.504Z,2.37
2017-12-14T13:16:22.817Z,3.97
2017-12-14T13:18:51.941Z,3.87
2017-12-14T13:21:20.239Z,3.00
2017-12-14T13:23:48.539Z,3.80
2017-12-14T13:26:16.868Z,3.83
2017-12-14T13:28:45.950Z,2.90
2017-12-14T13:31:15.057Z,3.60
2017-12-14T13:33:44.179Z,3.70
2017-12-14T13:36:12.503Z,3.63
2017-12-14T13:38:40.820Z,4.20
2017-12-14T13:41:09.145Z,3.40
2017-12-14T13:43:37.454Z,3.10
2017-12-14T13:46:05.741Z,3.07
2017-12-14T13:48:34.103Z,2.90
2017-12-14T13:51:02.385Z,2.83
2017-12-14T13:53:30.701Z,2.60
2017-12-14T13:55:59.760Z,2.70
2017-12-14T13:58:28.870Z,2.43
2017-12-14T14:00:57.199Z,2.90
2017-12-14T14:03:26.266Z,3.50
2017-12-14T14:05:54.568Z,3.67
2017-12-14T14:08:23.664Z,2.97
2017-12-14T14:10:52.731Z,2.60
2017-12-14T14:13:21.786Z,3.67
2017-12-14T14:15:50.087Z,3.67
2017-12-14T14:18:18.454Z,3.13
2017-12-14T14:20:46.777Z,3.10
2017-12-14T14:23:15.131Z,3.50
2017-12-14T14:25:43.425Z,3.53
2017-12-14T14:28:11.734Z,4.10
2017-12-14T14:30:40.064Z,4.27
2017-12-14T14:33:08.370Z,3.13
2017-12-14T14:35:36.674Z,2.60
2017-12-14T14:38:05.020Z,3.60
2017-12-14T14:40:33.315Z,4.50
2017-12-14T14:43:01.620Z,4.37
2017-12-14T14:45:29.986Z,3.50
2017-12-14T14:47:58.291Z,3.33
2017-12-14T14:50:27.366Z,4.00
2017-12-14T14:52:55.684Z,3.57
2017-12-14T14:55:24.752Z,4.23
2017-12-14T14:57:53.098Z,5.70
2017-12-14T15:00:21.393Z,6.30
2017-12-14T15:02:49.703Z,4.87
2017-12-14T15:05:18.016Z,6.17
2017-12-14T15:07:47.089Z,3.03
2017-12-14T15:10:15.415Z,3.80
2017-12-14T15:12:43.710Z,5.03
2017-12-14T15:15:12.028Z,4.10
2017-12-14T15:17:40.466Z,6.03
2017-12-14T15:20:08.768Z,3.83
2017-12-14T15:22:37.075Z,4.07
2017-12-14T15:25:05.379Z,4.07
2017-12-14T15:27:34.431Z,3.20
2017-12-14T15:30:02.981Z,2.83
2017-12-14T15:32:32.032Z,3.57
2017-12-14T15:35:00.350Z,2.90
2017-12-14T15:37:29.436Z,3.97
2017-12-14T15:39:57.759Z,7.50
2017-12-14T15:42:26.086Z,5.00
2017-12-14T15:44:54.392Z,4.97
2017-12-14T15:49:51.732Z,3.50
2017-12-14T15:52:20.044Z,3.63
2017-12-14T15:54:49.124Z,3.00
2017-12-14T15:57:17.423Z,3.87
2017-12-14T15:59:45.797Z,3.90
2017-12-14T16:02:14.120Z,3.43
2017-12-14T16:04:42.437Z,3.73
2017-12-14T16:07:10.716Z,2.87
2017-12-14T16:09:39.021Z,2.23
2017-12-14T16:12:07.331Z,2.83
2017-12-14T16:14:36.373Z,2.77
2017-12-14T16:17:04.683Z,2.20
2017-12-14T16:19:32.975Z,2.60
2017-12-14T16:22:01.287Z,3.70
2017-12-14T16:24:29.591Z,3.40
2017-12-14T16:26:57.889Z,3.70
2017-12-14T16:29:26.225Z,3.37
2017-12-14T16:31:55.306Z,3.23
2017-12-14T16:34:23.616Z,3.83
2017-12-14T16:36:51.917Z,3.30
2017-12-14T16:39:20.225Z,3.10
2017-12-14T16:41:49.287Z,4.00
2017-12-14T16:44:17.585Z,2.50
2017-12-14T16:46:45.895Z,3.00
2017-12-14T16:49:14.180Z,3.37
2017-12-14T16:51:42.473Z,3.30
2017-12-14T16:54:11.533Z,2.77
2017-12-14T16:56:39.833Z,2.30
2017-12-14T16:59:08.141Z,2.50
2017-12-14T17:01:37.208Z,2.97
2017-12-14T17:04:05.499Z,3.00
2017-12-14T17:06:33.837Z,3.70
2017-12-14T17:09:02.174Z,3.50
2017-12-14T17:11:30.471Z,4.00
2017-12-14T17:13:59.545Z,3.57
2017-12-14T17:16:27.967Z,4.13
2017-12-14T17:18:56.760Z,4.83
2017-12-14T17:21:25.077Z,4.50
2017-12-14T17:23:53.523Z,4.83
2017-12-14T17:26:21.882Z,5.53
2017-12-14T17:28:50.947Z,5.83
2017-12-14T17:31:19.237Z,6.80
2017-12-14T17:33:47.549Z,7.70
2017-12-14T17:36:16.861Z,8.97
2017-12-14T17:38:45.999Z,10.90
2017-12-14T17:41:14.503Z,9.23
2017-12-14T17:43:43.037Z,9.50
2017-12-14T17:46:11.601Z,11.00
2017-12-14T17:48:40.123Z,11.40
2017-12-14T17:51:08.721Z,11.10
2017-12-14T17:53:37.220Z,12.20
2017-12-14T17:56:06.045Z,13.47
2017-12-14T17:58:34.453Z,13.40
2017-12-14T18:01:02.869Z,14.60
2017-12-14T18:03:31.310Z,14.70
2017-12-14T18:05:59.785Z,15.43
2017-12-14T18:08:28.227Z,15.53
2017-12-14T18:10:56.864Z,17.40
2017-12-14T18:13:25.259Z,16.37
2017-12-14T18:15:53.577Z,16.10
2017-12-14T18:18:22.135Z,17.77
2017-12-14T18:20:51.234Z,17.43
2017-12-14T18:23:20.369Z,16.97
2017-12-14T18:25:48.841Z,16.33
2017-12-14T18:28:17.155Z,16.53
2017-12-14T18:30:45.507Z,17.47
2017-12-14T18:33:13.870Z,15.80
2017-12-14T18:35:43.121Z,18.80
2017-12-14T18:38:11.811Z,20.20
2017-12-14T18:40:40.428Z,18.70
2017-12-14T18:43:08.881Z,19.57
2017-12-14T18:45:37.255Z,18.30
2017-12-14T18:48:05.843Z,19.00
2017-12-14T18:50:34.657Z,14.80
2017-12-14T18:53:03.459Z,15.30
2017-12-14T18:55:35.661Z,14.10
2017-12-14T18:58:04.726Z,15.17
2017-12-14T19:00:33.027Z,15.63
2017-12-14T19:03:01.329Z,17.17
2017-12-14T19:05:30.379Z,16.43
2017-12-14T19:07:58.667Z,18.27
2017-12-14T19:10:26.968Z,17.40
2017-12-14T19:12:56.105Z,16.67
2017-12-14T19:15:24.401Z,18.70
2017-12-14T19:17:52.703Z,19.07
2017-12-14T19:20:21.013Z,19.50
2017-12-14T19:22:49.309Z,17.80
2017-12-14T19:25:18.384Z,20.67
2017-12-14T19:27:46.691Z,21.40
2017-12-14T19:30:16.635Z,19.80
2017-12-14T19:32:44.992Z,21.17
2017-12-14T19:35:14.070Z,20.80
2017-12-14T19:37:42.397Z,20.17
2017-12-14T19:40:11.546Z,22.03
2017-12-14T19:42:39.867Z,21.37
2017-12-14T19:45:08.197Z,19.10
2017-12-14T19:47:36.525Z,17.93
2017-12-14T19:50:05.592Z,18.37
2017-12-14T19:52:33.915Z,18.77
2017-12-14T19:55:02.209Z,18.33
2017-12-14T19:57:30.526Z,19.23
2017-12-14T19:59:58.811Z,19.13
2017-12-14T20:02:27.106Z,19.40
2017-12-14T20:04:55.429Z,19.00
2017-12-14T20:07:23.744Z,19.57
2017-12-14T20:09:52.047Z,19.00
2017-12-14T20:12:20.359Z,19.73
2017-12-14T20:14:49.428Z,19.07
2017-12-14T20:17:17.733Z,19.50
2017-12-14T20:19:46.799Z,21.00
2017-12-14T20:22:15.089Z,21.10
2017-12-14T20:24:43.415Z,21.53
2017-12-14T20:27:11.731Z,21.73
2017-12-14T20:29:40.041Z,20.97
2017-12-14T20:32:08.338Z,21.90
2017-12-14T20:34:37.410Z,20.97
2017-12-14T20:37:05.725Z,23.10
2017-12-14T20:39:34.775Z,22.57
2017-12-14T20:42:03.077Z,24.57
2017-12-14T20:44:31.375Z,24.50
2017-12-14T20:47:00.441Z,23.00
2017-12-14T20:49:28.742Z,23.07
2017-12-14T20:51:57.887Z,22.77
2017-12-14T20:54:26.184Z,25.13
2017-12-14T20:56:54.500Z,25.23
2017-12-14T20:59:22.802Z,25.97
2017-12-14T21:01:51.875Z,24.43
2017-12-14T21:04:20.176Z,24.03
2017-12-14T21:06:48.504Z,23.93
2017-12-14T21:09:16.824Z,24.57
2017-12-14T21:11:45.179Z,23.80
2017-12-14T21:14:13.479Z,24.77
2017-12-14T21:16:43.379Z,23.03
2017-12-14T21:19:11.684Z,23.87
2017-12-14T21:21:40.009Z,23.67
2017-12-14T21:24:08.315Z,24.07
2017-12-14T21:26:36.632Z,23.37
2017-12-14T21:29:04.952Z,25.07
2017-12-14T21:31:33.258Z,25.17
2017-12-14T21:34:01.552Z,25.60
2017-12-14T21:36:29.855Z,24.10
2017-12-14T21:38:58.198Z,21.10
2017-12-14T21:41:26.587Z,20.60
2017-12-14T21:43:54.898Z,23.00
2017-12-14T21:46:23.197Z,23.00
2017-12-14T21:48:52.258Z,21.73
2017-12-14T21:51:20.543Z,22.83
2017-12-14T21:53:48.846Z,23.07
2017-12-14T21:56:17.190Z,20.33
2017-12-14T21:58:45.506Z,22.70
2017-12-14T22:01:13.808Z,22.37
2017-12-14T22:03:42.921Z,22.80
2017-12-14T22:06:11.988Z,22.03
2017-12-14T22:08:40.292Z,21.30
2017-12-14T22:11:09.523Z,26.70
2017-12-14T22:13:37.864Z,20.23
2017-12-14T22:16:06.177Z,21.67
2017-12-14T22:18:34.467Z,21.40
2017-12-14T22:21:02.772Z,22.33
2017-12-14T22:23:31.135Z,20.97
2017-12-14T22:25:59.427Z,20.37
2017-12-14T22:28:27.764Z,19.87
2017-12-14T22:30:56.847Z,21.43
2017-12-14T22:33:25.143Z,20.83
2017-12-14T22:35:54.268Z,20.70
2017-12-14T22:38:22.557Z,19.47
2017-12-14T22:40:50.859Z,18.97
2017-12-14T22:43:19.181Z,19.40
2017-12-14T22:45:47.481Z,21.90
2017-12-14T22:48:16.548Z,20.47
2017-12-14T22:50:44.855Z,19.57
2017-12-14T22:53:13.926Z,19.33
2017-12-14T22:55:42.308Z,19.33
2017-12-14T22:58:10.624Z,20.33
2017-12-14T23:00:39.683Z,19.57
2017-12-14T23:03:07.990Z,20.33
2017-12-14T23:05:37.118Z,21.60
2017-12-14T23:08:05.423Z,20.17
2017-12-14T23:10:33.763Z,20.60
2017-12-14T23:13:02.844Z,19.60
2017-12-14T23:15:31.184Z,19.67
2017-12-14T23:17:59.491Z,20.70
2017-12-14T23:20:27.843Z,20.67
2017-12-14T23:22:56.132Z,21.70
2017-12-14T23:25:24.496Z,20.53
2017-12-14T23:27:52.812Z,24.00
2017-12-14T23:30:21.134Z,22.47
2017-12-14T23:32:50.233Z,19.80
2017-12-14T23:35:18.576Z,19.80
2017-12-14T23:37:46.875Z,21.70
2017-12-14T23:40:15.189Z,21.33
2017-12-14T23:42:43.623Z,22.40
2017-12-14T23:45:11.932Z,21.17
2017-12-14T23:47:41.101Z,22.23
2017-12-14T23:50:09.436Z,21.53
2017-12-14T23:52:38.497Z,21.47
2017-12-14T23:55:06.804Z,20.00
2017-12-14T23:57:35.918Z,21.20
